sensor_id;sensor_type;location;lat;lon;timestamp;P1;durP1;ratioP1;P2;durP2;ratioP2
74320;SDS011;62738;45.772;4.804;2022-09-30T00:00:36;2.70;;;1.50;;
74320;SDS011;62738;45.772;4.804;2022-09-30T00:03:23;4.07;;;1.50;;
74320;SDS011;62738;45.772;4.804;2022-09-30T00:06:10;3.50;;;1.50;;
74320;SDS011;62738;45.772;4.804;2022-09-30T00:08:57;3.50;;;1.48;;
74320;SDS011;62738;45.772;4.804;2022-09-30T00:11:44;7.05;;;1.52;;
74320;SDS011;62738;45.772;4.804;2022-09-30T00:14:32;3.00;;;1.20;;
74320;SDS011;62738;45.772;4.804;2022-09-30T00:17:19;2.72;;;1.27;;
74320;SDS011;62738;45.772;4.804;2022-09-30T00:20:06;3.45;;;1.25;;
74320;SDS011;62738;45.772;4.804;2022-09-30T00:22:53;2.35;;;1.20;;
74320;SDS011;62738;45.772;4.804;2022-09-30T00:25:40;2.80;;;1.20;;
74320;SDS011;62738;45.772;4.804;2022-09-30T00:28:27;4.05;;;1.38;;
74320;SDS011;62738;45.772;4.804;2022-09-30T00:31:15;3.83;;;1.50;;
74320;SDS011;62738;45.772;4.804;2022-09-30T00:34:05;2.80;;;0.98;;
74320;SDS011;62738;45.772;4.804;2022-09-30T00:36:55;5.28;;;1.38;;
74320;SDS011;62738;45.772;4.804;2022-09-30T00:39:42;2.85;;;1.30;;
74320;SDS011;62738;45.772;4.804;2022-09-30T00:42:29;2.40;;;1.10;;
74320;SDS011;62738;45.772;4.804;2022-09-30T00:45:17;6.07;;;1.05;;
74320;SDS011;62738;45.772;4.804;2022-09-30T00:48:07;3.35;;;1.35;;
74320;SDS011;62738;45.772;4.804;2022-09-30T00:51:00;3.03;;;1.30;;
74320;SDS011;62738;45.772;4.804;2022-09-30T00:53:53;2.13;;;1.13;;
74320;SDS011;62738;45.772;4.804;2022-09-30T00:56:43;3.85;;;1.00;;
74320;SDS011;62738;45.772;4.804;2022-09-30T00:59:37;1.92;;;1.15;;
74320;SDS011;62738;45.772;4.804;2022-09-30T01:02:28;2.45;;;1.05;;
74320;SDS011;62738;45.772;4.804;2022-09-30T01:05:16;2.80;;;0.90;;
74320;SDS011;62738;45.772;4.804;2022-09-30T01:08:03;2.05;;;1.10;;
74320;SDS011;62738;45.772;4.804;2022-09-30T01:10:53;1.95;;;0.98;;
74320;SDS011;62738;45.772;4.804;2022-09-30T01:13:40;7.13;;;1.20;;
74320;SDS011;62738;45.772;4.804;2022-09-30T01:16:38;2.47;;;0.88;;
74320;SDS011;62738;45.772;4.804;2022-09-30T01:29:34;2.85;;;1.00;;
74320;SDS011;62738;45.772;4.804;2022-09-30T01:32:52;2.22;;;0.82;;
74320;SDS011;62738;45.772;4.804;2022-09-30T01:35:52;2.35;;;1.02;;
74320;SDS011;62738;45.772;4.804;2022-09-30T01:44:59;2.70;;;1.10;;
74320;SDS011;62738;45.772;4.804;2022-09-30T01:48:14;3.58;;;0.93;;
74320;SDS011;62738;45.772;4.804;2022-09-30T01:51:16;2.83;;;0.90;;
74320;SDS011;62738;45.772;4.804;2022-09-30T01:57:25;2.92;;;1.10;;
74320;SDS011;62738;45.772;4.804;2022-09-30T02:00:17;3.28;;;1.30;;
74320;SDS011;62738;45.772;4.804;2022-09-30T02:03:07;4.85;;;1.00;;
74320;SDS011;62738;45.772;4.804;2022-09-30T02:06:03;1.58;;;0.77;;
74320;SDS011;62738;45.772;4.804;2022-09-30T02:09:15;2.63;;;1.10;;
74320;SDS011;62738;45.772;4.804;2022-09-30T02:12:05;3.60;;;0.85;;
74320;SDS011;62738;45.772;4.804;2022-09-30T02:14:58;2.30;;;1.00;;
74320;SDS011;62738;45.772;4.804;2022-09-30T02:17:53;2.03;;;1.08;;
74320;SDS011;62738;45.772;4.804;2022-09-30T02:20:44;4.88;;;1.00;;
74320;SDS011;62738;45.772;4.804;2022-09-30T02:23:35;1.40;;;0.90;;
74320;SDS011;62738;45.772;4.804;2022-09-30T02:26:28;5.82;;;1.00;;
74320;SDS011;62738;45.772;4.804;2022-09-30T02:29:17;3.28;;;0.90;;
74320;SDS011;62738;45.772;4.804;2022-09-30T02:32:12;3.17;;;0.90;;
74320;SDS011;62738;45.772;4.804;2022-09-30T02:35:11;2.25;;;0.73;;
74320;SDS011;62738;45.772;4.804;2022-09-30T02:38:09;3.50;;;1.00;;
74320;SDS011;62738;45.772;4.804;2022-09-30T02:41:03;2.47;;;1.15;;
74320;SDS011;62738;45.772;4.804;2022-09-30T02:43:56;2.28;;;0.77;;
74320;SDS011;62738;45.772;4.804;2022-09-30T02:47:02;2.08;;;0.80;;
74320;SDS011;62738;45.772;4.804;2022-09-30T02:50:14;3.25;;;1.15;;
74320;SDS011;62738;45.772;4.804;2022-09-30T02:56:40;3.20;;;0.88;;
74320;SDS011;62738;45.772;4.804;2022-09-30T02:59:35;3.65;;;1.08;;
74320;SDS011;62738;45.772;4.804;2022-09-30T03:02:22;4.15;;;1.10;;
74320;SDS011;62738;45.772;4.804;2022-09-30T03:05:10;2.85;;;1.08;;
74320;SDS011;62738;45.772;4.804;2022-09-30T03:07:57;3.38;;;0.90;;
74320;SDS011;62738;45.772;4.804;2022-09-30T03:10:44;4.15;;;1.10;;
74320;SDS011;62738;45.772;4.804;2022-09-30T03:26:01;3.45;;;0.90;;
74320;SDS011;62738;45.772;4.804;2022-09-30T03:47:54;3.17;;;1.10;;
74320;SDS011;62738;45.772;4.804;2022-09-30T03:50:44;3.90;;;1.10;;
74320;SDS011;62738;45.772;4.804;2022-09-30T03:53:36;4.25;;;1.38;;
74320;SDS011;62738;45.772;4.804;2022-09-30T03:56:27;2.45;;;1.00;;
74320;SDS011;62738;45.772;4.804;2022-09-30T03:59:18;3.67;;;1.08;;
74320;SDS011;62738;45.772;4.804;2022-09-30T04:02:09;3.70;;;1.17;;
74320;SDS011;62738;45.772;4.804;2022-09-30T04:04:58;2.53;;;1.20;;
74320;SDS011;62738;45.772;4.804;2022-09-30T04:07:45;6.07;;;1.10;;
74320;SDS011;62738;45.772;4.804;2022-09-30T04:10:32;2.17;;;1.10;;
74320;SDS011;62738;45.772;4.804;2022-09-30T04:13:19;4.53;;;1.40;;
74320;SDS011;62738;45.772;4.804;2022-09-30T04:16:06;1.92;;;1.00;;
74320;SDS011;62738;45.772;4.804;2022-09-30T04:18:53;3.60;;;1.10;;
74320;SDS011;62738;45.772;4.804;2022-09-30T04:21:42;4.10;;;1.20;;
74320;SDS011;62738;45.772;4.804;2022-09-30T04:24:29;4.13;;;1.13;;
74320;SDS011;62738;45.772;4.804;2022-09-30T04:27:16;3.55;;;1.20;;
74320;SDS011;62738;45.772;4.804;2022-09-30T04:30:03;2.50;;;1.20;;
74320;SDS011;62738;45.772;4.804;2022-09-30T04:32:50;5.20;;;1.50;;
74320;SDS011;62738;45.772;4.804;2022-09-30T04:35:38;3.53;;;1.30;;
74320;SDS011;62738;45.772;4.804;2022-09-30T04:38:25;4.32;;;1.40;;
74320;SDS011;62738;45.772;4.804;2022-09-30T04:41:13;4.38;;;1.35;;
74320;SDS011;62738;45.772;4.804;2022-09-30T04:44:04;3.00;;;1.17;;
74320;SDS011;62738;45.772;4.804;2022-09-30T04:46:51;4.13;;;1.23;;
74320;SDS011;62738;45.772;4.804;2022-09-30T04:49:38;4.78;;;1.50;;
74320;SDS011;62738;45.772;4.804;2022-09-30T04:52:25;2.92;;;1.30;;
74320;SDS011;62738;45.772;4.804;2022-09-30T04:55:12;3.45;;;1.17;;
74320;SDS011;62738;45.772;4.804;2022-09-30T04:57:59;3.95;;;1.38;;
74320;SDS011;62738;45.772;4.804;2022-09-30T05:00:46;2.10;;;1.20;;
74320;SDS011;62738;45.772;4.804;2022-09-30T05:03:33;3.45;;;1.27;;
74320;SDS011;62738;45.772;4.804;2022-09-30T05:06:20;4.80;;;1.35;;
74320;SDS011;62738;45.772;4.804;2022-09-30T05:09:07;3.53;;;1.20;;
74320;SDS011;62738;45.772;4.804;2022-09-30T05:11:55;3.78;;;1.55;;
74320;SDS011;62738;45.772;4.804;2022-09-30T05:14:41;5.40;;;1.40;;
74320;SDS011;62738;45.772;4.804;2022-09-30T05:17:29;3.28;;;1.33;;
74320;SDS011;62738;45.772;4.804;2022-09-30T05:20:16;3.35;;;1.50;;
74320;SDS011;62738;45.772;4.804;2022-09-30T05:23:07;2.30;;;1.30;;
74320;SDS011;62738;45.772;4.804;2022-09-30T05:25:53;4.35;;;1.67;;
74320;SDS011;62738;45.772;4.804;2022-09-30T05:28:41;3.67;;;1.60;;
74320;SDS011;62738;45.772;4.804;2022-09-30T05:31:28;2.00;;;1.40;;
74320;SDS011;62738;45.772;4.804;2022-09-30T05:34:15;3.88;;;1.85;;
74320;SDS011;62738;45.772;4.804;2022-09-30T05:37:02;3.35;;;1.63;;
74320;SDS011;62738;45.772;4.804;2022-09-30T05:39:49;5.18;;;1.92;;
74320;SDS011;62738;45.772;4.804;2022-09-30T05:42:36;6.03;;;2.03;;
74320;SDS011;62738;45.772;4.804;2022-09-30T05:45:23;4.80;;;1.75;;
74320;SDS011;62738;45.772;4.804;2022-09-30T05:48:11;3.92;;;2.00;;
74320;SDS011;62738;45.772;4.804;2022-09-30T05:50:58;4.25;;;2.17;;
74320;SDS011;62738;45.772;4.804;2022-09-30T05:53:47;9.90;;;3.65;;
74320;SDS011;62738;45.772;4.804;2022-09-30T05:56:34;9.02;;;3.53;;
74320;SDS011;62738;45.772;4.804;2022-09-30T05:59:21;6.47;;;3.05;;
74320;SDS011;62738;45.772;4.804;2022-09-30T06:02:09;7.10;;;2.88;;
74320;SDS011;62738;45.772;4.804;2022-09-30T06:04:56;4.18;;;2.25;;
74320;SDS011;62738;45.772;4.804;2022-09-30T06:07:43;4.40;;;2.53;;
74320;SDS011;62738;45.772;4.804;2022-09-30T06:10:30;6.72;;;2.92;;
74320;SDS011;62738;45.772;4.804;2022-09-30T06:13:17;6.07;;;2.47;;
74320;SDS011;62738;45.772;4.804;2022-09-30T06:16:06;6.10;;;2.75;;
74320;SDS011;62738;45.772;4.804;2022-09-30T06:18:54;4.32;;;2.70;;
74320;SDS011;62738;45.772;4.804;2022-09-30T06:21:41;5.93;;;2.25;;
74320;SDS011;62738;45.772;4.804;2022-09-30T06:24:28;5.40;;;2.65;;
74320;SDS011;62738;45.772;4.804;2022-09-30T06:27:16;4.93;;;2.63;;
74320;SDS011;62738;45.772;4.804;2022-09-30T06:30:04;5.72;;;3.38;;
74320;SDS011;62738;45.772;4.804;2022-09-30T06:32:54;7.78;;;3.17;;
74320;SDS011;62738;45.772;4.804;2022-09-30T06:35:42;9.93;;;3.25;;
74320;SDS011;62738;45.772;4.804;2022-09-30T06:38:30;4.97;;;2.85;;
74320;SDS011;62738;45.772;4.804;2022-09-30T06:41:17;6.43;;;3.50;;
74320;SDS011;62738;45.772;4.804;2022-09-30T06:44:04;5.18;;;3.03;;
74320;SDS011;62738;45.772;4.804;2022-09-30T06:46:52;5.93;;;2.58;;
74320;SDS011;62738;45.772;4.804;2022-09-30T06:49:40;6.80;;;2.83;;
74320;SDS011;62738;45.772;4.804;2022-09-30T06:52:35;8.40;;;4.50;;
74320;SDS011;62738;45.772;4.804;2022-09-30T06:55:22;8.10;;;3.33;;
74320;SDS011;62738;45.772;4.804;2022-09-30T06:58:12;6.50;;;2.85;;
74320;SDS011;62738;45.772;4.804;2022-09-30T07:01:01;4.88;;;2.78;;
74320;SDS011;62738;45.772;4.804;2022-09-30T07:03:49;5.45;;;2.90;;
74320;SDS011;62738;45.772;4.804;2022-09-30T07:06:43;6.30;;;2.83;;
74320;SDS011;62738;45.772;4.804;2022-09-30T07:09:31;8.23;;;2.80;;
74320;SDS011;62738;45.772;4.804;2022-09-30T07:12:18;6.97;;;2.65;;
74320;SDS011;62738;45.772;4.804;2022-09-30T07:15:05;3.92;;;2.55;;
74320;SDS011;62738;45.772;4.804;2022-09-30T07:17:58;4.68;;;2.38;;
74320;SDS011;62738;45.772;4.804;2022-09-30T07:20:46;3.40;;;1.90;;
74320;SDS011;62738;45.772;4.804;2022-09-30T07:23:34;3.78;;;1.80;;
74320;SDS011;62738;45.772;4.804;2022-09-30T07:26:22;4.55;;;2.03;;
74320;SDS011;62738;45.772;4.804;2022-09-30T07:29:10;7.63;;;2.33;;
74320;SDS011;62738;45.772;4.804;2022-09-30T07:31:58;4.45;;;1.70;;
74320;SDS011;62738;45.772;4.804;2022-09-30T07:34:46;11.10;;;1.90;;
74320;SDS011;62738;45.772;4.804;2022-09-30T07:37:33;3.78;;;1.65;;
74320;SDS011;62738;45.772;4.804;2022-09-30T07:40:21;3.42;;;1.50;;
74320;SDS011;62738;45.772;4.804;2022-09-30T07:43:08;4.47;;;2.03;;
74320;SDS011;62738;45.772;4.804;2022-09-30T07:45:55;3.80;;;1.70;;
74320;SDS011;62738;45.772;4.804;2022-09-30T07:48:43;4.15;;;1.60;;
74320;SDS011;62738;45.772;4.804;2022-09-30T07:51:38;5.65;;;1.83;;
74320;SDS011;62738;45.772;4.804;2022-09-30T07:54:28;6.05;;;1.40;;
74320;SDS011;62738;45.772;4.804;2022-09-30T07:57:16;4.45;;;1.45;;
74320;SDS011;62738;45.772;4.804;2022-09-30T08:00:04;3.28;;;1.40;;
74320;SDS011;62738;45.772;4.804;2022-09-30T08:03:12;3.03;;;1.50;;
74320;SDS011;62738;45.772;4.804;2022-09-30T08:06:03;6.07;;;1.80;;
74320;SDS011;62738;45.772;4.804;2022-09-30T08:08:55;3.97;;;1.65;;
74320;SDS011;62738;45.772;4.804;2022-09-30T08:11:43;3.28;;;1.60;;
74320;SDS011;62738;45.772;4.804;2022-09-30T08:14:30;4.18;;;1.48;;
74320;SDS011;62738;45.772;4.804;2022-09-30T08:17:17;6.05;;;2.45;;
74320;SDS011;62738;45.772;4.804;2022-09-30T08:20:04;1.90;;;1.00;;
74320;SDS011;62738;45.772;4.804;2022-09-30T08:22:58;3.53;;;1.60;;
74320;SDS011;62738;45.772;4.804;2022-09-30T08:25:45;3.20;;;1.35;;
74320;SDS011;62738;45.772;4.804;2022-09-30T08:28:32;3.60;;;1.70;;
74320;SDS011;62738;45.772;4.804;2022-09-30T08:31:21;3.83;;;1.20;;
74320;SDS011;62738;45.772;4.804;2022-09-30T08:34:09;3.53;;;1.60;;
74320;SDS011;62738;45.772;4.804;2022-09-30T08:36:56;2.65;;;1.23;;
74320;SDS011;62738;45.772;4.804;2022-09-30T08:39:45;2.20;;;1.30;;
74320;SDS011;62738;45.772;4.804;2022-09-30T08:45:57;3.47;;;1.40;;
74320;SDS011;62738;45.772;4.804;2022-09-30T08:51:45;3.63;;;1.23;;
74320;SDS011;62738;45.772;4.804;2022-09-30T08:54:34;3.13;;;1.08;;
74320;SDS011;62738;45.772;4.804;2022-09-30T08:57:33;3.25;;;1.20;;
74320;SDS011;62738;45.772;4.804;2022-09-30T09:00:31;3.50;;;1.40;;
74320;SDS011;62738;45.772;4.804;2022-09-30T09:03:19;3.63;;;1.42;;
74320;SDS011;62738;45.772;4.804;2022-09-30T09:15:59;4.07;;;1.45;;
74320;SDS011;62738;45.772;4.804;2022-09-30T09:18:57;2.35;;;1.20;;
74320;SDS011;62738;45.772;4.804;2022-09-30T09:24:49;3.47;;;1.20;;
74320;SDS011;62738;45.772;4.804;2022-09-30T09:30:53;1.90;;;1.13;;
74320;SDS011;62738;45.772;4.804;2022-09-30T09:33:44;2.03;;;1.10;;
74320;SDS011;62738;45.772;4.804;2022-09-30T09:39:54;3.85;;;1.63;;
74320;SDS011;62738;45.772;4.804;2022-09-30T09:48:48;3.53;;;1.50;;
74320;SDS011;62738;45.772;4.804;2022-09-30T09:51:36;5.40;;;1.40;;
74320;SDS011;62738;45.772;4.804;2022-09-30T09:54:27;2.80;;;1.20;;
74320;SDS011;62738;45.772;4.804;2022-09-30T09:57:17;2.60;;;1.40;;
74320;SDS011;62738;45.772;4.804;2022-09-30T10:00:11;3.88;;;1.70;;
74320;SDS011;62738;45.772;4.804;2022-09-30T10:03:26;5.10;;;1.85;;
74320;SDS011;62738;45.772;4.804;2022-09-30T10:06:14;3.85;;;2.03;;
74320;SDS011;62738;45.772;4.804;2022-09-30T10:09:01;3.20;;;1.85;;
74320;SDS011;62738;45.772;4.804;2022-09-30T10:11:47;2.13;;;1.40;;
74320;SDS011;62738;45.772;4.804;2022-09-30T10:17:32;3.03;;;1.77;;
74320;SDS011;62738;45.772;4.804;2022-09-30T10:23:19;5.05;;;1.50;;
74320;SDS011;62738;45.772;4.804;2022-09-30T10:29:08;3.05;;;1.35;;
74320;SDS011;62738;45.772;4.804;2022-09-30T10:32:11;2.63;;;1.35;;
74320;SDS011;62738;45.772;4.804;2022-09-30T10:35:03;3.70;;;1.45;;
74320;SDS011;62738;45.772;4.804;2022-09-30T10:37:57;3.10;;;1.65;;
74320;SDS011;62738;45.772;4.804;2022-09-30T10:40:47;2.40;;;1.13;;
74320;SDS011;62738;45.772;4.804;2022-09-30T10:43:38;4.70;;;1.63;;
74320;SDS011;62738;45.772;4.804;2022-09-30T10:46:30;2.67;;;1.30;;
74320;SDS011;62738;45.772;4.804;2022-09-30T10:49:25;2.78;;;1.30;;
74320;SDS011;62738;45.772;4.804;2022-09-30T10:52:35;3.20;;;1.40;;
74320;SDS011;62738;45.772;4.804;2022-09-30T10:55:26;2.28;;;1.20;;
74320;SDS011;62738;45.772;4.804;2022-09-30T10:58:36;4.07;;;2.20;;
74320;SDS011;62738;45.772;4.804;2022-09-30T11:01:31;3.30;;;1.65;;
74320;SDS011;62738;45.772;4.804;2022-09-30T11:07:43;4.53;;;1.50;;
74320;SDS011;62738;45.772;4.804;2022-09-30T11:10:52;2.15;;;1.20;;
74320;SDS011;62738;45.772;4.804;2022-09-30T11:13:58;5.00;;;1.42;;
74320;SDS011;62738;45.772;4.804;2022-09-30T11:23:09;1.88;;;1.05;;
74320;SDS011;62738;45.772;4.804;2022-09-30T11:26:09;1.73;;;0.95;;
74320;SDS011;62738;45.772;4.804;2022-09-30T11:32:19;2.10;;;1.20;;
74320;SDS011;62738;45.772;4.804;2022-09-30T11:41:39;2.25;;;1.00;;
74320;SDS011;62738;45.772;4.804;2022-09-30T11:44:34;2.75;;;1.17;;
74320;SDS011;62738;45.772;4.804;2022-09-30T11:53:37;2.47;;;1.10;;
74320;SDS011;62738;45.772;4.804;2022-09-30T11:56:31;2.88;;;1.00;;
74320;SDS011;62738;45.772;4.804;2022-09-30T12:02:43;3.20;;;0.90;;
74320;SDS011;62738;45.772;4.804;2022-09-30T12:05:40;1.88;;;1.00;;
74320;SDS011;62738;45.772;4.804;2022-09-30T12:08:43;1.42;;;0.70;;
74320;SDS011;62738;45.772;4.804;2022-09-30T12:11:47;1.77;;;0.80;;
74320;SDS011;62738;45.772;4.804;2022-09-30T12:14:41;1.85;;;0.80;;
74320;SDS011;62738;45.772;4.804;2022-09-30T12:20:26;1.05;;;0.88;;
74320;SDS011;62738;45.772;4.804;2022-09-30T12:23:29;2.13;;;0.80;;
74320;SDS011;62738;45.772;4.804;2022-09-30T12:26:38;2.72;;;1.00;;
74320;SDS011;62738;45.772;4.804;2022-09-30T12:29:31;1.42;;;0.73;;
74320;SDS011;62738;45.772;4.804;2022-09-30T12:36:12;1.67;;;0.70;;
74320;SDS011;62738;45.772;4.804;2022-09-30T12:42:42;2.63;;;0.90;;
74320;SDS011;62738;45.772;4.804;2022-09-30T12:48:53;5.55;;;1.00;;
74320;SDS011;62738;45.772;4.804;2022-09-30T12:51:44;3.88;;;0.90;;
74320;SDS011;62738;45.772;4.804;2022-09-30T12:54:40;1.98;;;0.80;;
74320;SDS011;62738;45.772;4.804;2022-09-30T12:57:30;2.55;;;1.05;;
74320;SDS011;62738;45.772;4.804;2022-09-30T13:00:20;1.23;;;0.75;;
74320;SDS011;62738;45.772;4.804;2022-09-30T13:03:13;1.80;;;0.70;;
74320;SDS011;62738;45.772;4.804;2022-09-30T13:06:03;1.23;;;0.70;;
74320;SDS011;62738;45.772;4.804;2022-09-30T13:14:50;1.92;;;0.80;;
74320;SDS011;62738;45.772;4.804;2022-09-30T13:23:55;0.85;;;0.80;;
74320;SDS011;62738;45.772;4.804;2022-09-30T13:26:45;2.03;;;0.82;;
74320;SDS011;62738;45.772;4.804;2022-09-30T13:29:34;3.45;;;0.90;;
74320;SDS011;62738;45.772;4.804;2022-09-30T13:32:29;3.05;;;0.82;;
74320;SDS011;62738;45.772;4.804;2022-09-30T13:38:19;4.05;;;0.80;;
74320;SDS011;62738;45.772;4.804;2022-09-30T13:41:13;3.13;;;1.00;;
74320;SDS011;62738;45.772;4.804;2022-09-30T13:44:08;1.58;;;0.70;;
74320;SDS011;62738;45.772;4.804;2022-09-30T13:47:17;3.58;;;0.80;;
74320;SDS011;62738;45.772;4.804;2022-09-30T13:53:05;1.30;;;0.70;;
74320;SDS011;62738;45.772;4.804;2022-09-30T13:55:58;2.88;;;0.60;;
74320;SDS011;62738;45.772;4.804;2022-09-30T14:02:07;2.08;;;0.70;;
74320;SDS011;62738;45.772;4.804;2022-09-30T14:05:23;1.65;;;0.70;;
74320;SDS011;62738;45.772;4.804;2022-09-30T14:08:39;1.35;;;0.70;;
74320;SDS011;62738;45.772;4.804;2022-09-30T14:18:17;3.03;;;0.60;;
74320;SDS011;62738;45.772;4.804;2022-09-30T14:24:21;1.30;;;0.52;;
74320;SDS011;62738;45.772;4.804;2022-09-30T14:27:20;2.08;;;0.60;;
74320;SDS011;62738;45.772;4.804;2022-09-30T14:30:17;1.05;;;0.68;;
74320;SDS011;62738;45.772;4.804;2022-09-30T14:33:19;1.13;;;0.50;;
74320;SDS011;62738;45.772;4.804;2022-09-30T14:36:13;1.00;;;0.60;;
74320;SDS011;62738;45.772;4.804;2022-09-30T14:39:04;1.10;;;0.57;;
74320;SDS011;62738;45.772;4.804;2022-09-30T14:41:53;1.08;;;0.57;;
74320;SDS011;62738;45.772;4.804;2022-09-30T14:44:43;1.40;;;0.60;;
74320;SDS011;62738;45.772;4.804;2022-09-30T14:47:31;1.67;;;0.68;;
74320;SDS011;62738;45.772;4.804;2022-09-30T14:50:22;1.13;;;0.50;;
74320;SDS011;62738;45.772;4.804;2022-09-30T14:53:28;0.93;;;0.35;;
74320;SDS011;62738;45.772;4.804;2022-09-30T14:56:20;1.52;;;0.82;;
74320;SDS011;62738;45.772;4.804;2022-09-30T14:59:19;1.70;;;0.60;;
74320;SDS011;62738;45.772;4.804;2022-09-30T15:02:14;1.58;;;0.40;;
74320;SDS011;62738;45.772;4.804;2022-09-30T15:05:06;1.70;;;0.95;;
74320;SDS011;62738;45.772;4.804;2022-09-30T15:07:58;0.82;;;0.60;;
74320;SDS011;62738;45.772;4.804;2022-09-30T15:10:48;1.00;;;0.70;;
74320;SDS011;62738;45.772;4.804;2022-09-30T15:13:40;0.98;;;0.57;;
74320;SDS011;62738;45.772;4.804;2022-09-30T15:16:28;3.00;;;0.70;;
74320;SDS011;62738;45.772;4.804;2022-09-30T15:19:39;3.00;;;0.80;;
74320;SDS011;62738;45.772;4.804;2022-09-30T15:22:28;1.45;;;0.65;;
74320;SDS011;62738;45.772;4.804;2022-09-30T15:25:17;1.67;;;0.57;;
74320;SDS011;62738;45.772;4.804;2022-09-30T15:28:08;1.45;;;0.70;;
74320;SDS011;62738;45.772;4.804;2022-09-30T15:30:57;1.67;;;0.63;;
74320;SDS011;62738;45.772;4.804;2022-09-30T15:33:44;1.17;;;0.70;;
74320;SDS011;62738;45.772;4.804;2022-09-30T15:36:32;1.80;;;0.70;;
74320;SDS011;62738;45.772;4.804;2022-09-30T15:39:22;1.17;;;0.80;;
74320;SDS011;62738;45.772;4.804;2022-09-30T15:42:35;1.77;;;0.60;;
74320;SDS011;62738;45.772;4.804;2022-09-30T15:45:45;1.55;;;0.60;;
